Time;durP1;ratioP1;P1;durP2;ratioP2;P2;SDS_P1;SDS_P2;PMS_P1;PMS_P2;Temp;Humidity;BMP_temperature;BMP_pressure;BME280_temperature;BME280_humidity;BME280_pressure;Samples;Min_cycle;Max_cycle;Signal;HPM_P1;HPM_P2
2021/12/24 00:01:22;;;;;;;;;14.00;13.00;;;;;17.06;55.90;100454.56;5054307;28;8798;-60
2021/12/24 00:03:48;;;;;;;;;11.00;11.00;;;;;17.00;56.07;100455.50;5053027;28;9648;-60
2021/12/24 00:06:14;;;;;;;;;12.25;12.25;;;;;16.99;55.92;100452.88;5052137;28;9613;-60
2021/12/24 00:08:40;;;;;;;;;12.25;10.50;;;;;17.00;56.01;100450.22;5053623;28;11432;-60
2021/12/24 00:11:06;;;;;;;;;10.50;10.50;;;;;16.97;55.90;100457.28;5053504;28;8800;-60
2021/12/24 00:13:36;;;;;;;;;11.00;11.00;;;;;16.99;56.00;100452.88;5053525;28;9624;-60
2021/12/24 00:16:10;;;;;;;;;13.25;12.75;;;;;16.95;56.08;100451.16;5051403;28;11610;-60
2021/12/24 00:18:42;;;;;;;;;13.00;9.00;;;;;17.02;56.04;100456.34;5053120;28;9783;-62
2021/12/24 00:37:20;;;;;;;;;10.25;10.25;;;;;16.99;56.13;100439.69;5051621;28;9511;-60
2021/12/24 00:40:14;;;;;;;;;13.33;9.33;;;;;17.01;56.26;100430.88;5052618;28;9822;-60
2021/12/24 00:42:33;;;;;;;;;11.00;10.00;;;;;17.01;56.11;100438.78;5052587;28;9447;-60
2021/12/24 00:44:58;;;;;;;;;10.75;10.75;;;;;17.04;55.89;100448.44;5052784;28;9440;-60
2021/12/24 00:47:25;;;;;;;;;10.25;10.25;;;;;17.08;55.99;100448.38;5050711;28;8819;-60
2021/12/24 00:49:50;;;;;;;;;9.75;9.75;;;;;16.99;55.93;100450.22;5053103;28;8768;-60
2021/12/24 00:57:25;;;;;;;;;10.25;10.25;;;;;17.07;56.04;100453.66;5050909;28;8788;-60
2021/12/24 00:59:50;;;;;;;;;8.50;7.50;;;;;17.05;56.03;100447.53;5052439;28;9505;-60
2021/12/24 01:02:18;;;;;;;;;8.25;8.25;;;;;17.04;55.95;100443.16;5052358;28;8777;-60
2021/12/24 01:04:43;;;;;;;;;7.50;7.50;;;;;17.07;55.99;100457.19;5052067;28;8815;-61
2021/12/24 01:07:09;;;;;;;;;11.75;10.00;;;;;17.02;56.11;100451.06;5050590;28;9376;-60
2021/12/24 01:09:35;;;;;;;;;9.67;8.00;;;;;17.05;55.87;100440.50;5051812;28;8765;-60
2021/12/24 01:12:00;;;;;;;;;7.00;7.00;;;;;17.08;56.20;100444.88;5052202;28;11412;-60
2021/12/24 01:14:26;;;;;;;;;8.25;8.25;;;;;17.02;56.21;100448.44;5051872;28;8815;-60
2021/12/24 01:17:03;;;;;;;;;9.25;7.25;;;;;17.05;56.36;100444.91;5050664;28;8920;-60
2021/12/24 01:19:29;;;;;;;;;9.00;7.00;;;;;17.03;56.37;100449.31;5052473;28;9543;-60
2021/12/24 01:24:27;;;;;;;;;6.25;6.25;;;;;17.09;55.88;100451.91;5052107;28;8819;-60
2021/12/24 01:29:56;;;;;;;;;9.00;8.00;;;;;17.09;56.37;100450.13;5051802;28;9320;-61
2021/12/24 01:37:55;;;;;;;;;7.50;7.00;;;;;17.04;56.38;100445.78;5050208;28;9369;-60
2021/12/24 01:40:25;;;;;;;;;7.00;6.00;;;;;17.02;56.53;100447.59;5052505;28;9350;-60
2021/12/24 01:42:52;;;;;;;;;7.33;7.00;;;;;17.07;56.46;100453.66;5051215;28;9990;-60
2021/12/24 01:45:20;;;;;;;;;7.67;7.67;;;;;17.08;56.27;100439.59;5051670;28;9436;-60
2021/12/24 01:47:53;;;;;;;;;7.00;7.00;;;;;17.08;56.03;100458.06;5050123;28;9342;-60
2021/12/24 01:50:19;;;;;;;;;6.25;6.25;;;;;17.09;56.07;100454.53;5051336;28;9388;-60
2021/12/24 01:52:48;;;;;;;;;6.50;6.50;;;;;17.07;56.57;100454.53;5051810;28;9315;-61
2021/12/24 01:55:13;;;;;;;;;5.00;5.00;;;;;17.04;56.51;100454.56;5051483;28;10368;-60
2021/12/24 01:57:42;;;;;;;;;8.50;8.50;;;;;17.12;56.13;100450.09;5049280;28;9573;-60
2021/12/24 02:00:10;;;;;;;;;10.00;7.00;;;;;17.07;56.52;100451.03;5052124;28;8780;-60
2021/12/24 02:02:35;;;;;;;;;6.25;6.25;;;;;17.06;56.63;100441.38;5051591;28;9415;-60
2021/12/24 02:05:00;;;;;;;;;9.00;8.00;;;;;17.07;56.50;100451.03;5050750;28;9445;-60
2021/12/24 02:07:26;;;;;;;;;9.00;7.33;;;;;17.13;56.06;100448.34;5049303;28;8792;-60
2021/12/24 02:09:53;;;;;;;;;8.00;7.75;;;;;17.03;56.53;100459.84;5051646;28;8767;-60
2021/12/24 02:12:19;;;;;;;;;6.50;6.50;;;;;17.08;56.65;100452.78;5050798;28;8764;-60
2021/12/24 02:14:49;;;;;;;;;6.25;6.25;;;;;17.10;56.45;100437.78;5051046;28;9450;-60
2021/12/24 02:17:39;;;;;;;;;5.33;5.33;;;;;17.09;56.25;100454.53;5049741;28;8797;-60
2021/12/24 02:30:44;;;;;;;;;4.67;4.67;;;;;17.13;56.46;100459.75;5051130;28;9392;-60
2021/12/24 02:33:10;;;;;;;;;6.75;6.00;;;;;17.08;56.70;100460.69;5050393;28;8906;-60
2021/12/24 02:35:36;;;;;;;;;6.67;5.00;;;;;17.09;56.65;100463.31;5049292;28;9505;-60
2021/12/24 02:38:06;;;;;;;;;5.00;4.00;;;;;17.23;56.37;100457.88;5051119;28;8806;-60
2021/12/24 02:40:32;;;;;;;;;2.25;2.25;;;;;17.18;56.23;100459.69;5050768;28;9244;-60
2021/12/24 02:42:58;;;;;;;;;5.75;5.75;;;;;17.16;56.52;100457.09;5050879;28;9468;-60
2021/12/24 02:45:26;;;;;;;;;6.33;5.67;;;;;17.14;56.44;100458.84;5050824;28;8893;-60
2021/12/24 02:53:56;;;;;;;;;6.50;5.00;;;;;17.12;56.66;100452.72;5027270;28;9275;-60
2021/12/24 02:56:25;;;;;;;;;6.67;5.67;;;;;17.15;56.37;100454.44;5043770;28;9358;-60
2021/12/24 02:58:50;;;;;;;;;4.67;4.67;;;;;17.17;56.42;100447.41;5050811;28;9327;-60
2021/12/24 03:01:21;;;;;;;;;5.00;4.67;;;;;17.16;56.52;100450.94;5050225;28;9300;-60
2021/12/24 03:03:48;;;;;;;;;4.67;4.67;;;;;17.08;56.61;100445.75;5050638;28;8905;-61
2021/12/24 03:06:22;;;;;;;;;4.00;4.00;;;;;17.07;56.93;100445.75;5048886;28;9456;-60
2021/12/24 03:08:48;;;;;;;;;4.67;3.67;;;;;17.13;56.66;100445.69;5049915;28;9569;-60
2021/12/24 03:11:13;;;;;;;;;7.00;7.00;;;;;17.13;56.77;100449.22;5050926;28;10285;-60
2021/12/24 03:13:41;;;;;;;;;6.00;5.00;;;;;17.08;56.85;100455.41;5050918;28;8780;-60
2021/12/24 03:16:07;;;;;;;;;5.00;4.00;;;;;17.15;56.39;100454.44;5048466;28;8825;-61
2021/12/24 03:18:35;;;;;;;;;5.50;4.50;;;;;17.15;56.58;100451.81;5050713;28;9325;-60
2021/12/24 03:21:12;;;;;;;;;5.00;4.00;;;;;17.16;56.66;100451.81;5049638;28;9546;-60
2021/12/24 03:26:05;;;;;;;;;3.67;3.67;;;;;17.15;56.37;100449.19;5044679;28;9350;-60
2021/12/24 03:28:30;;;;;;;;;3.33;3.33;;;;;17.16;56.67;100445.66;5046180;28;8769;-61
2021/12/24 03:30:56;;;;;;;;;5.00;5.00;;;;;17.12;56.88;100451.84;5050616;28;9412;-60
2021/12/24 03:33:22;;;;;;;;;7.33;6.00;;;;;17.11;56.84;100455.38;5053857;28;8764;-59
2021/12/24 03:35:47;;;;;;;;;5.00;4.00;;;;;17.08;56.57;100450.13;5049805;28;8853;-59
2021/12/24 03:38:12;;;;;;;;;5.00;4.00;;;;;17.16;56.66;100446.53;5048476;28;9540;-59
2021/12/24 03:40:37;;;;;;;;;4.00;4.00;;;;;17.15;56.63;100444.78;5054582;28;8804;-59
2021/12/24 03:43:03;;;;;;;;;3.33;3.33;;;;;17.07;56.98;100445.75;5053517;28;8800;-59
2021/12/24 03:45:42;;;;;;;;;5.00;4.00;;;;;17.12;56.61;100452.72;5053702;28;8836;-59
2021/12/24 03:48:17;;;;;;;;;4.33;4.33;;;;;17.13;56.55;100454.50;5054506;28;8787;-59
2021/12/24 03:51:17;;;;;;;;;3.50;3.50;;;;;17.21;56.63;100454.38;5053711;28;9300;-59
2021/12/24 03:56:15;;;;;;;;;4.00;4.00;;;;;17.14;56.68;100448.28;5051437;28;9335;-60
2021/12/24 03:58:41;;;;;;;;;4.75;4.00;;;;;17.05;57.08;100439.63;5053969;28;9316;-60
2021/12/24 04:01:06;;;;;;;;;5.50;4.25;;;;;17.07;57.03;100443.09;5054314;28;9520;-60
2021/12/24 04:03:31;;;;;;;;;4.00;2.75;;;;;17.06;57.35;100441.38;5053313;28;8801;-59
2021/12/24 04:05:57;;;;;;;;;4.00;2.50;;;;;17.11;56.97;100450.09;5048465;28;8830;-59
2021/12/24 04:08:22;;;;;;;;;3.25;3.25;;;;;17.11;56.67;100442.19;5049156;28;8768;-59
2021/12/24 04:10:47;;;;;;;;;5.00;5.00;;;;;17.08;57.11;100448.38;5053150;28;8784;-60
2021/12/24 04:13:14;;;;;;;;;5.67;5.00;;;;;17.01;57.43;100444.06;5054046;28;8825;-60
2021/12/24 04:15:39;;;;;;;;;3.00;3.00;;;;;17.05;56.86;100443.16;5051818;28;8808;-60
2021/12/24 04:18:13;;;;;;;;;3.00;3.00;;;;;17.19;57.00;100443.84;5053298;28;9331;-60
2021/12/24 04:26:10;;;;;;;;;4.00;4.00;;;;;17.13;57.01;100441.31;5050736;28;9260;-60
2021/12/24 04:28:35;;;;;;;;;4.25;3.00;;;;;17.21;56.52;100457.00;5053728;28;9587;-61
2021/12/24 04:31:02;;;;;;;;;5.00;3.50;;;;;17.20;56.76;100447.38;5053601;28;8834;-60
2021/12/24 04:33:33;;;;;;;;;2.33;2.33;;;;;17.17;56.73;100456.16;5052792;28;9628;-60
2021/12/24 04:51:02;;;;;;;;;3.00;3.00;;;;;17.17;57.01;100458.81;5053483;28;9219;-60
2021/12/24 05:01:28;;;;;;;;;2.25;2.25;;;;;17.10;57.17;100443.06;5051923;28;9423;-60
2021/12/24 05:03:53;;;;;;;;;5.00;5.00;;;;;17.13;57.11;100449.22;5053116;28;9379;-60
2021/12/24 05:11:17;;;;;;;;;3.33;3.00;;;;;17.15;57.02;100447.41;5053095;28;8904;-60
2021/12/24 05:13:43;;;;;;;;;4.00;4.00;;;;;17.06;57.14;100442.22;5051806;28;9219;-60
2021/12/24 05:16:23;;;;;;;;;4.00;4.00;;;;;17.11;57.05;100444.81;5044271;28;9409;-60
2021/12/24 05:21:33;;;;;;;;;2.00;2.00;;;;;17.15;57.05;100457.97;5052107;28;9216;-60
2021/12/24 05:24:00;;;;;;;;;3.67;3.00;;;;;17.07;57.03;100453.66;5052463;28;10047;-60
2021/12/24 05:26:28;;;;;;;;;2.67;2.33;;;;;17.12;57.07;100458.00;5048980;28;9205;-60
2021/12/24 05:28:54;;;;;;;;;2.33;2.33;;;;;17.09;57.22;100457.16;5051473;28;9127;-60
2021/12/24 05:31:20;;;;;;;;;3.33;3.33;;;;;17.13;56.82;100451.84;5052472;28;9275;-60
2021/12/24 05:33:45;;;;;;;;;3.00;3.00;;;;;17.15;56.77;100454.44;5052151;28;8812;-60
2021/12/24 05:36:11;;;;;;;;;2.00;2.00;;;;;17.18;57.04;100454.41;5047286;28;9366;-60
2021/12/24 05:38:39;;;;;;;;;2.00;2.00;;;;;17.16;56.91;100453.56;5052455;28;8907;-60
2021/12/24 05:41:05;;;;;;;;;3.67;3.67;;;;;17.13;56.76;100456.25;5052579;28;8811;-60
2021/12/24 05:43:31;;;;;;;;;2.33;2.00;;;;;17.11;57.00;100461.53;5051813;28;9246;-60
2021/12/24 05:46:02;;;;;;;;;3.33;3.33;;;;;17.12;57.15;100460.66;5045881;28;8843;-60
2021/12/24 05:48:27;;;;;;;;;2.00;2.00;;;;;17.08;57.09;100463.31;5047640;28;8906;-60
2021/12/24 05:50:52;;;;;;;;;1.67;1.67;;;;;17.02;57.45;100460.78;5051702;28;9303;-60
2021/12/24 05:53:18;;;;;;;;;2.33;2.33;;;;;17.03;57.30;100463.38;5052194;28;8788;-60
2021/12/24 05:55:43;;;;;;;;;5.00;5.00;;;;;17.07;57.13;100465.09;5049299;28;8797;-60
2021/12/24 05:58:08;;;;;;;;;2.67;2.00;;;;;17.11;57.35;100469.44;5052140;28;8883;-60
2021/12/24 06:00:36;;;;;;;;;2.00;2.00;;;;;17.13;56.88;100454.50;5051934;28;8792;-60
2021/12/24 06:03:02;;;;;;;;;3.33;3.33;;;;;17.09;57.19;100463.31;5051192;28;8787;-60
2021/12/24 06:05:27;;;;;;;;;3.00;3.00;;;;;17.13;57.26;100456.25;5051147;28;9207;-60
2021/12/24 06:07:52;;;;;;;;;2.00;2.00;;;;;17.10;57.02;100462.41;5050198;28;11540;-60
2021/12/24 06:10:18;;;;;;;;;3.00;3.00;;;;;17.05;57.42;100458.09;5051182;28;8768;-60
2021/12/24 06:12:43;;;;;;;;;3.00;2.67;;;;;17.03;57.51;100465.13;5051434;28;8889;-60
2021/12/24 06:15:09;;;;;;;;;2.00;2.00;;;;;17.01;57.39;100467.81;5051556;28;9528;-60
2021/12/24 06:17:37;;;;;;;;;2.00;2.00;;;;;17.03;57.15;100468.66;5040928;28;8800;-60
2021/12/24 06:20:08;;;;;;;;;1.67;1.67;;;;;17.09;57.01;100468.59;5051323;28;9107;-59
2021/12/24 06:22:33;;;;;;;;;2.00;2.00;;;;;17.10;56.93;100467.69;5051352;28;9297;-59
2021/12/24 06:24:58;;;;;;;;;3.00;2.67;;;;;17.09;57.18;100460.69;5050056;28;9278;-59
2021/12/24 06:27:24;;;;;;;;;2.00;2.00;;;;;17.07;57.41;100464.22;5050070;28;8808;-60
2021/12/24 06:29:49;;;;;;;;;4.00;3.00;;;;;17.01;57.42;100457.25;5051176;28;8768;-60
2021/12/24 06:32:15;;;;;;;;;1.00;1.00;;;;;17.01;57.33;100464.28;5051060;28;8780;-60
2021/12/24 06:34:40;;;;;;;;;3.00;3.00;;;;;17.04;57.16;100465.13;5050883;28;8792;-61
2021/12/24 06:37:08;;;;;;;;;2.67;2.67;;;;;17.08;57.08;100469.47;5041756;28;8823;-60
2021/12/24 06:39:33;;;;;;;;;1.67;1.67;;;;;17.12;57.18;100470.31;5050953;28;8780;-60
2021/12/24 06:41:59;;;;;;;;;2.33;2.33;;;;;17.04;57.17;100467.75;5051164;28;9274;-61
2021/12/24 06:44:24;;;;;;;;;1.67;1.67;;;;;17.02;57.13;100476.59;5051324;28;8800;-60
2021/12/24 06:46:50;;;;;;;;;4.67;4.33;;;;;17.04;57.11;100477.44;5040149;28;8826;-59
2021/12/24 06:49:15;;;;;;;;;2.00;2.00;;;;;17.04;56.96;100480.94;5051057;28;8854;-59
2021/12/24 06:51:40;;;;;;;;;2.00;2.00;;;;;17.07;57.00;100470.38;5050948;28;8858;-59
2021/12/24 06:54:06;;;;;;;;;3.00;3.00;;;;;17.03;57.46;100470.41;5050423;28;8792;-59
2021/12/24 06:56:33;;;;;;;;;2.00;2.00;;;;;17.03;57.26;100466.00;5048855;28;8796;-59
2021/12/24 06:58:59;;;;;;;;;2.00;2.00;;;;;16.98;57.21;100466.97;5050079;28;9246;-59
2021/12/24 07:01:24;;;;;;;;;2.33;2.33;;;;;16.98;57.59;100474.88;5050992;28;9115;-59
2021/12/24 07:03:49;;;;;;;;;3.00;3.00;;;;;17.01;57.13;100483.63;5050516;28;8861;-61
2021/12/24 07:06:15;;;;;;;;;2.33;2.33;;;;;17.01;57.19;100480.13;5047957;28;8808;-60
2021/12/24 07:08:46;;;;;;;;;2.00;2.00;;;;;17.00;57.15;100473.97;5050802;28;8799;-60
2021/12/24 07:11:11;;;;;;;;;1.67;1.67;;;;;17.02;57.17;100476.59;5050658;28;9558;-60
2021/12/24 07:13:36;;;;;;;;;2.33;2.33;;;;;17.08;56.86;100477.41;5050334;28;9329;-60
2021/12/24 07:16:02;;;;;;;;;3.00;3.00;;;;;17.09;57.04;100481.78;5047883;28;8812;-60
2021/12/24 07:18:28;;;;;;;;;2.00;2.00;;;;;17.06;57.01;100481.78;5050779;28;8776;-60
2021/12/24 07:20:53;;;;;;;;;2.00;2.00;;;;;17.06;56.85;100465.97;5049786;28;11413;-60
2021/12/24 07:23:18;;;;;;;;;2.33;2.33;;;;;17.02;57.12;100469.53;5050935;28;8772;-60
2021/12/24 07:25:45;;;;;;;;;1.67;1.67;;;;;17.02;57.08;100466.03;5047034;28;8818;-60
2021/12/24 07:28:11;;;;;;;;;1.67;1.67;;;;;17.02;56.92;100461.63;5043338;28;8803;-60
2021/12/24 07:30:36;;;;;;;;;2.33;2.33;;;;;17.03;57.18;100462.50;5050643;28;9177;-59
2021/12/24 07:33:02;;;;;;;;;0.33;0.33;;;;;17.07;56.75;100464.22;5050526;28;9524;-60
2021/12/24 07:35:27;;;;;;;;;4.00;3.00;;;;;17.03;57.30;100463.38;5049500;28;8822;-60
2021/12/24 07:37:52;;;;;;;;;2.33;2.00;;;;;17.02;57.31;100466.88;5048805;28;8804;-60
2021/12/24 07:40:18;;;;;;;;;1.00;1.00;;;;;17.06;57.01;100467.75;5050751;28;8780;-60
2021/12/24 07:42:46;;;;;;;;;2.00;1.33;;;;;17.04;57.33;100461.63;5049692;28;8853;-60
2021/12/24 07:45:12;;;;;;;;;1.67;1.67;;;;;17.05;57.42;100471.28;5050620;28;9202;-60
2021/12/24 07:47:41;;;;;;;;;2.00;2.00;;;;;17.05;57.26;100469.53;5048278;28;9264;-60
2021/12/24 07:53:04;;;;;;;;;2.00;2.00;;;;;17.03;57.38;100471.28;5026509;28;9489;-60
2021/12/24 07:55:36;;;;;;;;;2.33;2.33;;;;;16.91;57.34;100445.03;5048285;28;9161;-60
2021/12/24 07:58:01;;;;;;;;;2.33;2.33;;;;;17.07;57.23;100466.84;5049836;28;9371;-60
2021/12/24 08:00:28;;;;;;;;;1.33;1.33;;;;;17.08;57.03;100461.56;5050548;28;9124;-60
2021/12/24 08:02:56;;;;;;;;;2.00;2.00;;;;;17.13;56.69;100459.75;5049445;28;8783;-60
2021/12/24 08:05:25;;;;;;;;;3.33;2.67;;;;;17.04;57.13;100457.22;5049549;28;9151;-60
2021/12/24 08:07:51;;;;;;;;;2.00;2.00;;;;;17.06;57.11;100470.41;5039844;28;9230;-60
2021/12/24 08:10:17;;;;;;;;;2.00;2.00;;;;;17.02;57.24;100466.88;5049384;28;9181;-60
2021/12/24 08:12:43;;;;;;;;;2.00;2.00;;;;;17.00;57.21;100468.69;5049983;28;9123;-60
2021/12/24 08:15:09;;;;;;;;;0.00;0.00;;;;;16.97;57.22;100468.72;5050436;28;8764;-60
2021/12/24 08:17:35;;;;;;;;;3.00;3.00;;;;;17.00;57.42;100478.34;5047602;28;8788;-60
2021/12/24 08:20:00;;;;;;;;;2.67;2.00;;;;;17.06;57.13;100478.31;5053592;28;9172;-60
2021/12/24 08:22:26;;;;;;;;;2.00;2.00;;;;;17.08;56.91;100477.41;5054062;28;9344;-60
2021/12/24 08:24:52;;;;;;;;;1.33;1.33;;;;;17.12;56.59;100480.88;5052797;28;8804;-60
2021/12/24 08:27:18;;;;;;;;;2.00;2.00;;;;;17.06;57.24;100473.03;5050086;28;11436;-60
2021/12/24 08:29:44;;;;;;;;;3.00;2.00;;;;;17.05;56.99;100477.44;5053216;28;8803;-60
2021/12/24 08:32:09;;;;;;;;;3.00;2.00;;;;;17.05;57.40;100477.44;5053274;28;9162;-60
2021/12/24 08:34:35;;;;;;;;;2.00;2.00;;;;;17.09;57.03;100487.06;5053541;28;9639;-60
2021/12/24 08:37:01;;;;;;;;;2.00;2.00;;;;;17.10;56.84;100485.28;5051108;28;8889;-60
2021/12/24 08:39:27;;;;;;;;;2.00;2.00;;;;;17.10;56.89;100482.63;5052874;28;8784;-60
2021/12/24 08:41:54;;;;;;;;;1.00;1.00;;;;;17.05;57.01;100480.06;5053027;28;8847;-60
2021/12/24 08:44:25;;;;;;;;;3.00;2.33;;;;;17.07;57.27;100478.28;5052730;28;9061;-60
2021/12/24 08:46:50;;;;;;;;;2.00;2.00;;;;;17.02;57.08;100469.53;5050514;28;9049;-60
2021/12/24 08:49:16;;;;;;;;;1.00;1.00;;;;;17.06;57.01;100470.41;5053400;28;9027;-60
2021/12/24 08:51:42;;;;;;;;;1.00;0.67;;;;;17.07;57.00;100467.72;5052625;28;8796;-60
2021/12/24 08:54:07;;;;;;;;;1.00;1.00;;;;;17.10;56.88;100472.97;5052818;28;9112;-60
2021/12/24 08:56:32;;;;;;;;;2.67;2.00;;;;;17.04;56.75;100448.44;5051204;28;8808;-61
2021/12/24 08:58:58;;;;;;;;;4.00;1.67;;;;;17.14;56.96;100476.44;5052067;28;8776;-60
2021/12/24 09:01:26;;;;;;;;;1.00;1.00;;;;;17.07;56.88;100469.47;5053291;28;8785;-60
2021/12/24 09:03:51;;;;;;;;;1.00;1.00;;;;;17.03;57.11;100480.94;5052847;28;8784;-61
2021/12/24 09:06:16;;;;;;;;;4.00;3.00;;;;;17.06;57.06;100468.59;5050454;28;9148;-61
2021/12/24 09:08:44;;;;;;;;;3.00;1.00;;;;;17.11;57.00;100471.19;5052979;28;9627;-60
2021/12/24 09:11:10;;;;;;;;;2.00;0.67;;;;;17.14;57.01;100469.41;5052762;28;8861;-61
2021/12/24 09:13:35;;;;;;;;;1.00;1.00;;;;;17.10;56.96;100470.31;5052529;28;9022;-60
2021/12/24 09:16:01;;;;;;;;;1.33;1.33;;;;;17.14;56.83;100473.78;5050490;28;8800;-61
2021/12/24 09:18:26;;;;;;;;;2.00;2.00;;;;;17.07;57.20;100466.84;5052932;28;9619;-61
2021/12/24 09:20:54;;;;;;;;;0.67;0.67;;;;;17.07;56.86;100469.47;5050941;28;8812;-60
2021/12/24 09:23:19;;;;;;;;;3.00;2.00;;;;;17.08;57.09;100465.97;5052827;28;8784;-60
2021/12/24 09:25:44;;;;;;;;;1.00;1.00;;;;;17.08;57.22;100464.22;5050216;28;9143;-61
2021/12/24 09:28:10;;;;;;;;;1.67;1.67;;;;;17.11;56.88;100468.56;5051970;28;8776;-61
2021/12/24 09:30:35;;;;;;;;;1.00;1.00;;;;;17.08;57.03;100472.13;5051775;28;8808;-60
2021/12/24 09:33:05;;;;;;;;;1.67;1.67;;;;;17.06;57.41;100470.41;5052767;28;8780;-60
2021/12/24 09:35:31;;;;;;;;;1.00;1.00;;;;;17.10;57.19;100469.44;5050911;28;8819;-60
2021/12/24 09:38:06;;;;;;;;;0.00;0.00;;;;;17.17;57.00;100468.50;5051627;28;9823;-59
2021/12/24 09:40:33;;;;;;;;;2.33;1.33;;;;;17.17;56.70;100472.00;5053138;28;8803;-60
2021/12/24 09:42:59;;;;;;;;;1.00;1.00;;;;;17.14;56.90;100471.16;5052629;28;9010;-59
2021/12/24 09:45:25;;;;;;;;;2.67;1.67;;;;;17.12;56.97;100465.03;5052604;28;8987;-59
2021/12/24 09:47:50;;;;;;;;;0.33;0.33;;;;;17.12;56.83;100476.47;5049274;28;9131;-60
2021/12/24 09:50:20;;;;;;;;;2.00;0.33;;;;;17.10;57.40;100472.09;5052250;28;8804;-61
2021/12/24 09:52:49;;;;;;;;;1.00;1.00;;;;;17.08;57.17;100469.47;5051845;28;8764;-59
2021/12/24 09:55:25;;;;;;;;;1.00;1.00;;;;;17.11;57.24;100477.34;5051944;28;9793;-60
2021/12/24 09:57:51;;;;;;;;;3.00;1.67;;;;;17.17;57.08;100464.09;5050650;28;8956;-60
2021/12/24 10:00:19;;;;;;;;;0.33;0.00;;;;;17.14;56.69;100465.88;5053041;28;8944;-60
2021/12/24 10:02:49;;;;;;;;;1.00;1.00;;;;;17.15;57.08;100470.28;5051416;28;8791;-60
2021/12/24 10:05:33;;;;;;;;;1.33;1.33;;;;;17.11;57.25;100461.53;5052070;28;9053;-59
2021/12/24 10:07:59;;;;;;;;;0.67;0.67;;;;;17.12;57.16;100454.50;5050819;28;9044;-60
2021/12/24 10:10:26;;;;;;;;;1.00;1.00;;;;;17.20;57.05;100466.72;5049611;28;9141;-60
2021/12/24 10:12:53;;;;;;;;;2.67;1.33;;;;;17.21;57.02;100464.91;5051274;28;9102;-61
2021/12/24 10:15:18;;;;;;;;;2.00;1.00;;;;;17.22;57.52;100464.91;5051829;28;9185;-61
2021/12/24 10:17:46;;;;;;;;;3.00;3.00;;;;;17.31;57.64;100463.94;5050737;28;9195;-60
2021/12/24 10:20:15;;;;;;;;;5.25;2.75;;;;;17.31;58.60;100466.59;5052020;28;8756;-61
2021/12/24 10:22:48;;;;;;;;;6.50;5.50;;;;;17.37;60.00;100471.78;5050990;28;9348;-60
2021/12/24 10:25:17;;;;;;;;;5.33;5.00;;;;;17.35;61.01;100460.38;5051738;28;9362;-61
2021/12/24 10:27:43;;;;;;;;;7.33;7.00;;;;;17.43;61.20;100463.81;5051019;28;9255;-60
2021/12/24 10:30:21;;;;;;;;;8.33;5.00;;;;;17.49;62.54;100474.28;5050503;28;9397;-60
2021/12/24 10:32:47;;;;;;;;;6.00;6.00;;;;;17.49;63.15;100476.03;5051127;28;9270;-59
2021/12/24 10:35:28;;;;;;;;;3.67;3.67;;;;;17.54;64.41;100476.84;5051341;28;9492;-59
2021/12/24 10:38:17;;;;;;;;;5.75;4.50;;;;;17.25;63.96;100474.53;5050199;28;9386;-59
2021/12/24 10:40:54;;;;;;;;;6.00;5.00;;;;;17.04;63.78;100470.41;5050569;28;9410;-59
2021/12/24 10:43:28;;;;;;;;;4.00;4.00;;;;;17.13;64.66;100491.41;5051553;28;9615;-59
2021/12/24 10:46:14;;;;;;;;;4.75;4.75;;;;;17.08;62.83;100482.66;5048564;28;9306;-60
2021/12/24 10:48:48;;;;;;;;;4.25;4.25;;;;;16.96;61.80;100474.00;5050495;28;9327;-60
2021/12/24 10:51:41;;;;;;;;;4.00;4.00;;;;;16.85;61.88;100471.47;5050420;28;9409;-60
2021/12/24 10:54:06;;;;;;;;;4.00;3.33;;;;;16.81;61.17;100475.91;5050531;28;9335;-59
2021/12/24 10:56:31;;;;;;;;;8.25;7.25;;;;;16.77;61.00;100471.56;5050862;28;9323;-60
2021/12/24 10:58:57;;;;;;;;;4.75;4.75;;;;;16.75;61.14;100465.44;5049706;28;9479;-59
2021/12/24 11:01:22;;;;;;;;;5.00;5.00;;;;;16.71;60.70;100465.47;5049477;28;8796;-59
2021/12/24 11:03:49;;;;;;;;;6.25;5.25;;;;;16.70;60.63;100469.00;5041122;28;8792;-60
2021/12/24 11:06:15;;;;;;;;;6.75;5.75;;;;;16.71;60.17;100465.47;5050080;28;8792;-60
2021/12/24 11:08:41;;;;;;;;;4.00;4.00;;;;;16.68;60.05;100470.78;5050875;28;9336;-59
2021/12/24 11:11:11;;;;;;;;;3.75;3.75;;;;;16.66;60.08;100473.41;5051138;28;9503;-59
2021/12/24 11:13:41;;;;;;;;;7.33;5.67;;;;;16.65;59.85;100466.38;5048612;28;8816;-60
2021/12/24 11:16:14;;;;;;;;;3.25;3.25;;;;;16.80;60.23;100471.50;5049458;28;9330;-60
2021/12/24 11:18:44;;;;;;;;;4.25;3.75;;;;;16.95;60.17;100466.97;5050587;28;9405;-60
2021/12/24 11:21:24;;;;;;;;;5.33;5.33;;;;;17.09;59.64;100462.44;5050216;28;9322;-60
2021/12/24 11:23:55;;;;;;;;;4.00;4.00;;;;;17.13;59.79;100470.31;5048583;28;9518;-60
2021/12/24 11:26:27;;;;;;;;;4.00;3.67;;;;;17.05;59.89;100469.53;5049791;28;9290;-59
2021/12/24 11:28:54;;;;;;;;;4.67;3.00;;;;;17.23;59.22;100468.44;5050384;28;9872;-60
2021/12/24 11:31:22;;;;;;;;;4.00;3.00;;;;;17.21;59.50;100467.56;5050844;28;9175;-60
2021/12/24 11:33:51;;;;;;;;;4.00;4.00;;;;;17.18;59.46;100468.47;5047170;28;10026;-60
2021/12/24 11:36:19;;;;;;;;;4.33;3.67;;;;;17.13;59.60;100458.88;5049947;28;9369;-60
2021/12/24 11:38:47;;;;;;;;;5.00;4.00;;;;;17.13;59.82;100461.53;5050350;28;9998;-60
2021/12/24 11:41:15;;;;;;;;;4.00;3.00;;;;;17.18;59.31;100462.31;5050045;28;9532;-60
2021/12/24 11:43:43;;;;;;;;;5.25;3.00;;;;;17.17;59.41;100465.88;5048453;28;9258;-60
2021/12/24 11:46:10;;;;;;;;;2.00;2.00;;;;;17.16;59.24;100456.22;5050350;28;9437;-60
2021/12/24 11:48:37;;;;;;;;;3.00;2.33;;;;;17.17;59.53;100464.09;5050013;28;9254;-60
2021/12/24 11:51:14;;;;;;;;;4.00;3.00;;;;;17.18;59.22;100457.94;5050054;28;9238;-60
2021/12/24 11:53:40;;;;;;;;;3.00;2.00;;;;;17.15;59.21;100452.69;5042808;28;9226;-59
2021/12/24 11:56:10;;;;;;;;;4.33;3.00;;;;;17.18;59.19;100452.66;5053382;28;9409;-59
2021/12/24 11:59:02;;;;;;;;;1.00;1.00;;;;;17.23;58.92;100450.84;5054198;28;8784;-59
2021/12/24 12:01:38;;;;;;;;;2.00;2.00;;;;;17.25;59.38;100445.53;5049337;28;9959;-60
2021/12/24 12:04:13;;;;;;;;;2.00;2.00;;;;;17.25;59.00;100446.41;5053562;28;9262;-59
2021/12/24 12:06:38;;;;;;;;;2.00;2.00;;;;;17.27;58.99;100449.03;5053723;28;9278;-59
2021/12/24 12:09:08;;;;;;;;;4.67;3.00;;;;;17.30;59.14;100449.88;5053162;28;9266;-59
2021/12/24 12:11:36;;;;;;;;;4.00;2.00;;;;;17.26;59.36;100449.91;5052694;28;8788;-59
2021/12/24 12:14:10;;;;;;;;;3.67;3.00;;;;;17.27;59.40;100457.84;5051372;28;9254;-59
2021/12/24 12:16:38;;;;;;;;;2.00;2.00;;;;;17.30;59.11;100449.88;5053087;28;9228;-60
2021/12/24 12:19:22;;;;;;;;;2.00;2.00;;;;;17.27;59.30;100449.03;5053477;28;9902;-59
2021/12/24 12:22:20;;;;;;;;;2.00;2.00;;;;;17.27;59.19;100451.69;5053811;28;9339;-59
2021/12/24 12:24:59;;;;;;;;;3.00;2.33;;;;;17.29;59.19;100448.13;5053568;28;9363;-59
2021/12/24 12:27:35;;;;;;;;;2.33;2.33;;;;;17.29;59.26;100450.75;5053920;28;9339;-59
2021/12/24 12:30:21;;;;;;;;;3.00;2.00;;;;;17.29;59.16;100461.31;5052712;28;9179;-59
2021/12/24 12:32:48;;;;;;;;;2.67;2.00;;;;;17.25;59.40;100450.81;5052900;28;9334;-60
2021/12/24 12:35:14;;;;;;;;;2.00;2.00;;;;;17.27;59.06;100459.59;5053379;28;9166;-59
2021/12/24 12:37:42;;;;;;;;;2.00;2.00;;;;;17.27;59.47;100467.50;5052706;28;9209;-61
2021/12/24 12:40:13;;;;;;;;;2.33;2.33;;;;;17.30;59.22;100470.09;5048068;28;9125;-60
2021/12/24 12:42:56;;;;;;;;;2.00;1.67;;;;;17.30;59.44;100464.81;5050366;28;9985;-60
2021/12/24 12:45:42;;;;;;;;;4.00;1.33;;;;;17.30;59.29;100468.34;5052891;28;9213;-60
2021/12/24 12:48:11;;;;;;;;;1.67;1.33;;;;;17.34;59.25;100461.25;5052760;28;9200;-59
2021/12/24 12:50:40;;;;;;;;;2.67;1.33;;;;;17.35;59.28;100445.44;5051318;28;9218;-60
2021/12/24 12:53:35;;;;;;;;;4.00;4.00;;;;;17.35;59.05;100447.19;5053825;28;9103;-59
2021/12/24 12:56:09;;;;;;;;;1.33;1.00;;;;;17.35;59.29;100452.47;5052379;28;9409;-59
2021/12/24 12:58:35;;;;;;;;;1.00;1.00;;;;;17.33;59.46;100447.19;5050139;28;9022;-59
2021/12/24 13:01:01;;;;;;;;;2.67;1.33;;;;;17.33;59.46;100449.84;5053224;28;9180;-60
2021/12/24 13:03:26;;;;;;;;;2.00;2.00;;;;;17.32;59.52;100444.59;5053463;28;8788;-60
2021/12/24 13:05:55;;;;;;;;;2.00;2.00;;;;;17.34;59.22;100443.66;5052062;28;9255;-59
2021/12/24 13:08:23;;;;;;;;;3.00;3.00;;;;;17.33;59.32;100447.19;5052524;28;8776;-60
2021/12/24 13:11:11;;;;;;;;;2.67;2.00;;;;;17.34;59.50;100448.06;5052581;28;9115;-60